createdAt,value
2023-08-11T00:04:04.406Z,5.20
2023-08-11T00:14:10.117Z,4.30
2023-08-11T00:24:16.004Z,4.50
2023-08-11T00:34:21.749Z,4.10
2023-08-11T00:44:27.462Z,3.90
2023-08-11T00:54:33.174Z,4.00
2023-08-11T01:04:39.411Z,4.00
2023-08-11T01:14:55.872Z,4.10
2023-08-11T01:25:01.643Z,4.20
2023-08-11T01:35:10.240Z,4.30
2023-08-11T01:45:17.787Z,4.10
2023-08-11T01:55:26.049Z,4.70
2023-08-11T02:05:32.176Z,4.00
2023-08-11T02:15:37.916Z,3.30
2023-08-11T02:25:43.873Z,4.30
2023-08-11T02:35:49.527Z,3.60
2023-08-11T02:45:55.111Z,4.20
2023-08-11T02:56:02.304Z,5.10
2023-08-11T03:06:08.002Z,4.80
2023-08-11T03:16:13.672Z,4.70
2023-08-11T03:26:19.339Z,3.90
2023-08-11T03:36:25.067Z,3.50
2023-08-11T03:46:31.461Z,4.80
2023-08-11T03:56:37.168Z,4.50
2023-08-11T04:06:42.986Z,5.80
2023-08-11T04:16:49.010Z,4.30
2023-08-11T04:26:55.039Z,6.40
2023-08-11T04:37:01.371Z,4.60
2023-08-11T04:47:08.208Z,5.10
2023-08-11T04:57:14.019Z,4.80
2023-08-11T05:07:19.713Z,3.50
2023-08-11T05:17:25.379Z,3.50
2023-08-11T05:27:31.362Z,3.20
2023-08-11T05:37:38.708Z,2.70
2023-08-11T05:47:44.358Z,2.80
2023-08-11T05:57:50.551Z,2.80
2023-08-11T06:08:06.072Z,2.20
2023-08-11T06:18:12.792Z,2.40
2023-08-11T06:28:18.906Z,2.00
2023-08-11T06:38:24.657Z,1.80
2023-08-11T06:48:30.351Z,2.20
2023-08-11T06:58:36.099Z,2.60
2023-08-11T07:08:41.828Z,3.00
2023-08-11T07:18:47.452Z,2.70
2023-08-11T07:28:53.293Z,4.10
2023-08-11T07:39:12.840Z,5.60
2023-08-11T07:49:24.880Z,6.80
2023-08-11T07:59:30.706Z,6.10
2023-08-11T08:09:36.475Z,5.10
2023-08-11T08:19:42.232Z,1.70
2023-08-11T08:29:48.103Z,1.30
2023-08-11T08:39:54.143Z,2.10
2023-08-11T08:50:02.960Z,1.10
2023-08-11T09:00:10.884Z,1.50
2023-08-11T09:10:18.576Z,1.60
2023-08-11T09:20:26.508Z,1.70
2023-08-11T09:30:33.391Z,1.50
2023-08-11T09:40:39.107Z,1.40
2023-08-11T09:50:46.361Z,1.50
2023-08-11T10:21:31.548Z,1.40
2023-08-11T10:31:37.303Z,1.50
2023-08-11T11:50:14.364Z,1.00
2023-08-11T12:00:22.078Z,1.70
2023-08-11T12:10:36.045Z,1.20
2023-08-11T12:20:42.119Z,1.60
2023-08-11T12:30:48.094Z,1.80
2023-08-11T12:40:53.940Z,1.80
2023-08-11T12:50:59.693Z,2.00
2023-08-11T13:01:08.047Z,1.30
2023-08-11T13:11:13.780Z,2.00
2023-08-11T13:21:19.469Z,1.10
2023-08-11T13:31:25.600Z,1.40
2023-08-11T13:41:31.432Z,2.30
2023-08-11T13:51:37.528Z,1.90
2023-08-11T14:01:43.284Z,1.60
2023-08-11T14:11:49.408Z,4.40
2023-08-11T14:21:55.180Z,2.00
2023-08-11T14:32:18.141Z,1.10
2023-08-11T14:42:27.137Z,1.60
2023-08-11T14:52:32.910Z,2.80
2023-08-11T15:02:38.877Z,1.20
2023-08-11T15:12:44.940Z,1.60
2023-08-11T15:22:51.777Z,1.40
2023-08-11T15:32:57.902Z,1.90
2023-08-11T15:43:03.811Z,1.40
2023-08-11T15:53:09.736Z,1.90
2023-08-11T16:03:16.013Z,1.50
2023-08-11T16:13:21.970Z,1.70
2023-08-11T16:23:27.702Z,1.30
2023-08-11T16:33:33.440Z,1.70
2023-08-11T16:43:40.909Z,1.30
2023-08-11T16:53:49.107Z,3.30
2023-08-11T17:03:55.027Z,1.30
2023-08-11T17:14:00.919Z,2.00
2023-08-11T17:24:07.573Z,1.70
2023-08-11T17:34:13.263Z,1.60
2023-08-11T17:44:19.503Z,1.80
2023-08-11T17:54:25.335Z,2.60
2023-08-11T18:04:31.109Z,1.60
2023-08-11T18:14:36.877Z,2.60
2023-08-11T18:24:43.167Z,2.40
2023-08-11T18:34:49.237Z,2.20
2023-08-11T18:44:55.125Z,3.10
2023-08-11T18:55:00.974Z,2.90
2023-08-11T19:05:08.394Z,4.30
2023-08-11T19:15:14.729Z,11.20
2023-08-11T19:25:20.702Z,10.90
2023-08-11T19:35:26.460Z,11.70
2023-08-11T19:45:32.547Z,15.00
2023-08-11T19:55:38.737Z,12.70
2023-08-11T20:05:48.585Z,21.40
2023-08-11T20:16:02.073Z,20.50
2023-08-11T20:26:08.036Z,22.80
2023-08-11T20:36:13.931Z,27.80
2023-08-11T20:46:19.913Z,25.40
2023-08-11T20:56:25.840Z,21.60
2023-08-11T21:06:33.930Z,18.30
2023-08-11T21:26:45.647Z,10.90
2023-08-11T21:36:51.671Z,8.50
2023-08-11T21:46:57.455Z,12.90
2023-08-11T21:57:03.200Z,11.70
2023-08-11T22:07:09.396Z,8.30
2023-08-11T22:17:15.920Z,8.10
2023-08-11T22:27:21.776Z,7.50
2023-08-11T22:37:27.706Z,7.10
2023-08-11T22:47:33.436Z,5.70
2023-08-11T22:57:39.263Z,8.00
2023-08-11T23:07:45.332Z,7.00
2023-08-11T23:17:51.556Z,6.60
2023-08-11T23:27:57.304Z,6.10
2023-08-11T23:38:03.044Z,6.90
2023-08-11T23:48:09.446Z,6.70
2023-08-11T23:58:15.369Z,6.00
